Time;durP1;ratioP1;P1;durP2;ratioP2;P2;SDS_P1;SDS_P2;PMS_P1;PMS_P2;Temp;Humidity;BMP_temperature;BMP_pressure;BME280_temperature;BME280_humidity;BME280_pressure;Samples;Min_cycle;Max_cycle;Signal;HPM_P1;HPM_P2
2022/01/10 00:00:25;;;;;;;10.43;4.93;;;4.20;99.90;;;;;;4175576;28;20043;-66
2022/01/10 00:02:26;;;;;;;10.00;4.80;;;4.20;99.90;;;;;;4175735;28;20084;-66
2022/01/10 00:04:27;;;;;;;11.32;5.72;;;4.20;99.90;;;;;;4176055;28;20468;-66
2022/01/10 00:06:27;;;;;;;9.32;4.93;;;4.20;99.90;;;;;;4174775;28;20037;-66
2022/01/10 00:08:28;;;;;;;9.45;5.30;;;4.20;99.90;;;;;;4174214;28;20396;-66
2022/01/10 00:10:29;;;;;;;9.32;5.13;;;4.10;99.90;;;;;;4171293;28;20492;-66
2022/01/10 00:12:29;;;;;;;9.30;5.35;;;4.10;99.90;;;;;;4179079;28;20146;-66
2022/01/10 00:14:30;;;;;;;10.30;5.43;;;4.10;99.90;;;;;;4172890;28;20033;-66
2022/01/10 00:16:30;;;;;;;11.27;5.38;;;4.10;99.90;;;;;;4179435;28;20075;-66
2022/01/10 00:18:31;;;;;;;12.27;6.05;;;4.10;99.90;;;;;;4171531;28;20041;-66
2022/01/10 00:20:32;;;;;;;11.95;5.53;;;4.10;99.90;;;;;;4172352;28;20029;-66
2022/01/10 00:22:33;;;;;;;11.35;5.95;;;4.10;99.90;;;;;;4175497;28;20033;-66
2022/01/10 00:24:34;;;;;;;10.38;5.65;;;4.10;99.90;;;;;;4174396;28;20495;-68
2022/01/10 00:26:35;;;;;;;12.05;6.32;;;4.10;99.90;;;;;;4170358;28;20040;-67
2022/01/10 00:28:35;;;;;;;11.65;5.80;;;4.10;99.90;;;;;;4174578;28;20065;-67
2022/01/10 00:30:36;;;;;;;13.98;6.10;;;4.10;99.90;;;;;;4171984;28;20112;-67
2022/01/10 00:32:41;;;;;;;10.02;6.03;;;4.00;99.90;;;;;;4170146;28;20037;-66
2022/01/10 00:34:42;;;;;;;12.40;6.32;;;4.00;99.90;;;;;;4171668;28;20033;-66
2022/01/10 00:36:42;;;;;;;10.55;5.72;;;4.10;99.90;;;;;;4174226;28;20043;-67
2022/01/10 00:38:43;;;;;;;11.82;5.68;;;4.00;99.90;;;;;;4154912;28;20034;-67
2022/01/10 00:40:48;;;;;;;12.32;5.95;;;4.00;99.90;;;;;;4173759;28;20079;-67
2022/01/10 00:42:55;;;;;;;13.63;6.20;;;4.00;99.90;;;;;;4179651;28;20029;-66
2022/01/10 00:44:57;;;;;;;12.70;6.47;;;4.00;99.90;;;;;;4174772;28;20103;-66
2022/01/10 00:46:58;;;;;;;;;;;4.00;99.90;;;;;;4179087;28;20395;-66
2022/01/10 00:48:58;;;;;;;11.90;5.82;;;4.00;99.90;;;;;;4172868;28;20003;-66
2022/01/10 00:50:59;;;;;;;9.43;5.32;;;4.00;99.90;;;;;;4177624;28;20073;-66
2022/01/10 00:53:01;;;;;;;11.40;6.30;;;4.00;99.90;;;;;;4173758;28;20518;-67
2022/01/10 00:55:02;;;;;;;11.63;6.28;;;4.00;99.90;;;;;;4163350;28;20101;-67
2022/01/10 00:57:03;;;;;;;13.45;6.43;;;4.00;99.90;;;;;;4176163;28;20042;-67
2022/01/10 00:59:04;;;;;;;8.70;5.32;;;3.90;99.90;;;;;;4173334;28;20037;-69
2022/01/10 01:01:04;;;;;;;12.13;5.63;;;3.90;99.90;;;;;;4177072;28;20033;-68
2022/01/10 01:03:05;;;;;;;11.90;5.30;;;3.90;99.90;;;;;;4171348;28;20038;-68
2022/01/10 01:05:10;;;;;;;15.02;6.43;;;3.90;99.90;;;;;;4170804;28;20045;-67
2022/01/10 01:07:12;;;;;;;12.25;6.07;;;3.90;99.90;;;;;;4180294;28;20040;-67
2022/01/10 01:09:15;;;;;;;15.48;6.30;;;3.90;99.90;;;;;;4178802;28;20039;-67
2022/01/10 01:13:53;;;;;;;14.75;6.55;;;3.90;99.90;;;;;;4174774;28;20041;-67
2022/01/10 01:20:27;;;;;;;12.30;6.13;;;3.80;99.90;;;;;;4173752;28;20055;-67
2022/01/10 01:24:47;;;;;;;10.50;6.03;;;3.80;99.90;;;;;;4175968;28;20464;-67
2022/01/10 01:26:51;;;;;;;9.75;5.78;;;3.90;99.90;;;;;;4171895;28;20039;-67
2022/01/10 01:28:52;;;;;;;10.95;6.13;;;3.90;99.90;;;;;;4171354;28;20042;-66
2022/01/10 01:30:53;;;;;;;13.20;6.07;;;3.80;99.90;;;;;;4169065;28;20071;-66
2022/01/10 01:32:54;;;;;;;13.45;6.35;;;3.80;99.90;;;;;;4173136;28;20045;-67
2022/01/10 01:35:01;;;;;;;12.25;6.38;;;3.80;99.90;;;;;;4175207;28;20051;-67
2022/01/10 01:37:02;;;;;;;12.60;6.30;;;3.80;99.90;;;;;;4174535;28;20075;-67
2022/01/10 01:39:18;;;;;;;11.93;6.25;;;3.80;99.90;;;;;;4170602;28;20476;-67
2022/01/10 01:41:34;;;;;;;15.63;6.80;;;3.80;99.90;;;;;;4173951;28;20128;-67
2022/01/10 01:43:35;;;;;;;8.95;5.68;;;3.80;99.90;;;;;;4174210;28;20029;-67
2022/01/10 01:45:42;;;;;;;13.80;6.30;;;3.80;99.90;;;;;;4172524;28;20037;-67
2022/01/10 01:47:43;;;;;;;13.35;5.80;;;3.80;99.90;;;;;;4170349;28;20033;-67
2022/01/10 01:49:44;;;;;;;14.50;6.45;;;3.70;99.90;;;;;;4171888;28;20067;-67
2022/01/10 01:51:45;;;;;;;15.57;6.97;;;3.80;99.90;;;;;;4170259;28;20040;-67
2022/01/10 01:53:47;;;;;;;12.30;5.90;;;3.70;99.90;;;;;;4173224;28;20041;-67
2022/01/10 01:55:47;;;;;;;18.10;6.72;;;3.70;99.90;;;;;;4169740;28;20052;-67
2022/01/10 01:57:48;;;;;;;16.55;5.93;;;3.70;99.90;;;;;;4177330;28;20029;-67
2022/01/10 01:59:49;;;;;;;15.38;6.50;;;3.70;99.90;;;;;;4172854;28;20042;-66
2022/01/10 02:01:49;;;;;;;13.10;6.10;;;3.70;99.90;;;;;;4167099;28;20052;-66
2022/01/10 02:03:51;;;;;;;15.45;6.90;;;3.70;99.90;;;;;;4176641;28;20040;-67
2022/01/10 02:05:51;;;;;;;12.23;5.70;;;3.70;99.90;;;;;;4169981;28;20549;-67
2022/01/10 02:07:52;;;;;;;11.90;6.45;;;3.70;99.90;;;;;;4178120;28;20037;-67
2022/01/10 02:09:52;;;;;;;14.35;7.35;;;3.70;99.90;;;;;;4170871;28;20033;-67
2022/01/10 02:11:54;;;;;;;13.57;6.50;;;3.70;99.90;;;;;;4172048;28;20136;-67
2022/01/10 02:13:55;;;;;;;15.75;6.60;;;3.70;99.90;;;;;;4163579;28;20049;-67
2022/01/10 02:16:01;;;;;;;14.60;6.72;;;3.70;99.90;;;;;;4168355;28;20041;-67
2022/01/10 02:18:03;;;;;;;11.95;6.63;;;3.70;99.90;;;;;;4176078;28;20431;-67
2022/01/10 02:20:05;;;;;;;10.10;5.63;;;3.70;99.90;;;;;;4171883;28;20404;-68
2022/01/10 02:22:06;;;;;;;13.23;6.85;;;3.70;99.90;;;;;;4172387;28;20044;-67
2022/01/10 02:24:07;;;;;;;14.02;6.18;;;3.60;99.90;;;;;;4175661;28;20037;-67
2022/01/10 02:26:08;;;;;;;14.20;6.82;;;3.60;99.90;;;;;;4172221;28;20037;-67
2022/01/10 02:28:09;;;;;;;9.68;6.13;;;3.60;99.90;;;;;;4176177;28;20037;-67
2022/01/10 02:30:10;;;;;;;17.67;6.97;;;3.60;99.90;;;;;;4175402;28;20029;-67
2022/01/10 02:32:10;;;;;;;16.23;7.65;;;3.60;99.90;;;;;;4179456;28;20033;-67
2022/01/10 02:34:15;;;;;;;15.73;7.65;;;3.60;99.90;;;;;;4181147;28;20033;-67
2022/01/10 02:36:28;;;;;;;15.57;7.20;;;3.60;99.90;;;;;;4174738;28;20507;-67
2022/01/10 02:38:29;;;;;;;;;;;3.60;99.90;;;;;;4182036;28;20179;-67
2022/01/10 02:40:31;;;;;;;13.10;6.43;;;3.60;99.90;;;;;;4174232;28;20287;-66
2022/01/10 02:42:33;;;;;;;13.27;6.72;;;3.60;99.90;;;;;;4172280;28;20048;-67
2022/01/10 02:44:33;;;;;;;14.68;6.45;;;3.60;99.90;;;;;;4176635;28;20064;-67
2022/01/10 02:46:36;;;;;;;14.00;7.40;;;3.60;99.90;;;;;;4172253;28;20037;-67
2022/01/10 02:48:36;;;;;;;12.70;6.90;;;3.60;99.90;;;;;;4176745;28;20037;-67
2022/01/10 02:50:37;;;;;;;24.13;7.28;;;3.60;99.90;;;;;;4175737;28;20068;-67
2022/01/10 02:52:38;;;;;;;15.52;7.32;;;3.60;99.90;;;;;;4174716;28;20045;-67
2022/01/10 02:54:39;;;;;;;17.75;7.50;;;3.60;99.90;;;;;;4179750;28;20160;-67
2022/01/10 02:56:51;;;;;;;18.70;7.18;;;3.60;99.90;;;;;;4171078;28;20041;-67
2022/01/10 02:58:52;;;;;;;14.23;6.82;;;3.60;99.90;;;;;;4175997;28;20040;-67
2022/01/10 03:00:53;;;;;;;12.80;6.65;;;3.60;99.90;;;;;;4175146;28;20041;-67
2022/01/10 03:02:54;;;;;;;18.33;7.70;;;3.60;99.90;;;;;;4164712;28;20048;-67
2022/01/10 03:04:55;;;;;;;15.50;7.47;;;3.60;99.90;;;;;;4177044;28;20046;-67
2022/01/10 03:06:56;;;;;;;15.73;7.22;;;3.50;99.90;;;;;;4176264;28;20090;-66
2022/01/10 03:09:03;;;;;;;12.70;6.18;;;3.50;99.90;;;;;;4176169;28;20033;-67
2022/01/10 03:11:04;;;;;;;10.85;6.25;;;3.50;99.90;;;;;;4169203;28;20037;-66
2022/01/10 03:13:05;;;;;;;10.30;5.95;;;3.40;99.90;;;;;;4174604;28;20131;-68
2022/01/10 03:15:07;;;;;;;12.88;6.20;;;3.40;99.90;;;;;;4181455;28;20106;-67
2022/01/10 03:17:10;;;;;;;12.13;6.35;;;3.40;99.90;;;;;;4172992;28;20553;-67
2022/01/10 03:19:10;;;;;;;;;;;3.40;99.90;;;;;;4177498;28;20045;-67
2022/01/10 03:21:11;;;;;;;13.15;6.55;;;3.40;99.90;;;;;;4174668;28;19959;-67
2022/01/10 03:23:11;;;;;;;16.67;7.53;;;3.30;99.90;;;;;;4176134;28;20044;-67
2022/01/10 03:25:12;;;;;;;12.65;6.63;;;3.40;99.90;;;;;;4171961;28;20087;-67
2022/01/10 03:27:13;;;;;;;15.50;7.32;;;3.30;99.90;;;;;;4172682;28;20112;-67
2022/01/10 03:29:13;;;;;;;15.10;6.70;;;3.30;99.90;;;;;;4179166;28;20495;-67
2022/01/10 03:31:14;;;;;;;16.25;6.93;;;3.30;99.90;;;;;;4175029;28;20083;-67
2022/01/10 03:33:14;;;;;;;14.77;7.28;;;3.30;99.90;;;;;;4175990;28;20029;-67
2022/01/10 03:35:15;;;;;;;12.23;6.25;;;3.30;99.90;;;;;;4175702;28;20136;-67
2022/01/10 03:37:16;;;;;;;13.98;7.13;;;3.40;99.90;;;;;;4177051;28;20063;-66
2022/01/10 03:39:17;;;;;;;16.67;6.78;;;3.40;99.90;;;;;;4174804;28;20026;-67
2022/01/10 03:41:17;;;;;;;13.13;6.97;;;3.40;99.90;;;;;;4167046;28;20079;-67
2022/01/10 03:43:18;;;;;;;14.18;6.85;;;3.40;99.90;;;;;;4171838;28;20045;-67
2022/01/10 03:45:18;;;;;;;16.55;6.90;;;3.40;99.90;;;;;;4180588;28;20045;-67
2022/01/10 03:47:21;;;;;;;12.20;6.60;;;3.40;99.90;;;;;;4176330;28;20132;-67
2022/01/10 03:49:21;;;;;;;12.13;6.72;;;3.40;99.90;;;;;;4175760;28;20038;-67
2022/01/10 03:51:22;;;;;;;12.07;6.63;;;3.40;99.90;;;;;;4173842;28;20088;-67
2022/01/10 03:53:23;;;;;;;14.32;6.95;;;3.40;99.90;;;;;;4169464;28;20120;-67
2022/01/10 03:55:24;;;;;;;16.70;7.30;;;3.40;99.90;;;;;;4171680;28;20049;-67
2022/01/10 03:57:24;;;;;;;13.98;6.25;;;3.30;99.90;;;;;;4171748;28;20400;-67
2022/01/10 03:59:25;;;;;;;14.57;6.95;;;3.30;99.90;;;;;;4174326;28;20052;-67
2022/01/10 04:01:26;;;;;;;19.60;7.63;;;3.30;99.90;;;;;;4180709;28;20044;-67
2022/01/10 04:03:26;;;;;;;14.57;6.90;;;3.30;99.90;;;;;;4170984;28;20064;-67
2022/01/10 04:05:27;;;;;;;14.75;6.93;;;3.30;99.90;;;;;;4175496;28;20048;-67
2022/01/10 04:07:28;;;;;;;13.77;6.72;;;3.30;99.90;;;;;;4174934;28;20037;-67
2022/01/10 04:09:28;;;;;;;13.18;6.85;;;3.30;99.90;;;;;;4167460;28;20059;-67
2022/01/10 04:11:29;;;;;;;14.43;6.80;;;3.30;99.90;;;;;;4172396;28;20033;-67
2022/01/10 04:13:30;;;;;;;12.85;7.32;;;3.30;99.90;;;;;;4174414;28;20127;-67
2022/01/10 04:15:30;;;;;;;14.20;7.28;;;3.30;99.90;;;;;;4172169;28;20048;-67
2022/01/10 04:17:31;;;;;;;13.63;7.07;;;3.30;99.90;;;;;;4175463;28;20033;-67
2022/01/10 04:19:32;;;;;;;14.15;7.75;;;3.30;99.90;;;;;;4175390;28;20095;-67
2022/01/10 04:21:33;;;;;;;12.32;6.78;;;3.30;99.90;;;;;;4178866;28;20033;-67
2022/01/10 04:23:33;;;;;;;16.95;7.60;;;3.30;99.90;;;;;;4174898;28;20113;-67
2022/01/10 04:25:34;;;;;;;14.60;7.35;;;3.30;99.90;;;;;;4174633;28;20498;-67
2022/01/10 04:27:34;;;;;;;13.77;7.10;;;3.30;99.90;;;;;;4170547;28;20048;-67
2022/01/10 04:29:35;;;;;;;15.00;7.70;;;3.30;99.90;;;;;;4172227;28;20037;-67
2022/01/10 04:31:36;;;;;;;16.13;7.82;;;3.30;99.90;;;;;;4176335;28;20064;-67
2022/01/10 04:33:36;;;;;;;18.30;7.63;;;3.20;99.90;;;;;;4175189;28;20086;-67
2022/01/10 04:35:37;;;;;;;14.25;7.55;;;3.20;99.90;;;;;;4170336;28;20475;-67
2022/01/10 04:37:38;;;;;;;15.65;8.23;;;3.20;99.90;;;;;;4178222;28;20194;-67
2022/01/10 04:39:38;;;;;;;13.05;7.40;;;3.20;99.90;;;;;;4170025;28;20080;-67
2022/01/10 04:41:39;;;;;;;15.40;8.10;;;3.20;99.90;;;;;;4170495;28;20480;-67
2022/01/10 04:43:40;;;;;;;14.95;7.88;;;3.20;99.90;;;;;;4171741;28;20100;-67
2022/01/10 04:45:42;;;;;;;15.30;7.60;;;3.20;99.90;;;;;;4165987;28;20068;-67
2022/01/10 04:47:43;;;;;;;14.75;7.32;;;3.20;99.90;;;;;;4173534;28;20476;-67
2022/01/10 04:51:56;;;;;;;;;;;3.20;99.90;;;;;;4174045;28;20072;-66
2022/01/10 04:53:57;;;;;;;19.42;7.63;;;3.20;99.90;;;;;;4172679;28;19909;-67
2022/01/10 04:55:57;;;;;;;16.27;6.90;;;3.20;99.90;;;;;;4181598;28;20048;-67
2022/01/10 04:57:58;;;;;;;16.75;7.32;;;3.20;99.90;;;;;;4178012;28;20045;-67
2022/01/10 04:59:58;;;;;;;15.40;7.75;;;3.20;99.90;;;;;;4170551;28;20045;-67
2022/01/10 05:01:59;;;;;;;15.15;8.10;;;3.20;99.90;;;;;;4173152;28;20033;-67
2022/01/10 05:04:00;;;;;;;16.38;7.93;;;3.20;99.90;;;;;;4174626;28;20041;-67
2022/01/10 05:06:01;;;;;;;14.82;7.78;;;3.20;99.90;;;;;;4169296;28;20045;-67
2022/01/10 05:08:01;;;;;;;14.93;8.15;;;3.20;99.90;;;;;;4177811;28;20512;-67
2022/01/10 05:10:03;;;;;;;17.25;8.20;;;3.10;99.90;;;;;;4174259;28;20048;-67
2022/01/10 05:12:04;;;;;;;15.02;6.82;;;3.10;99.90;;;;;;4173349;28;20042;-67
2022/01/10 05:14:04;;;;;;;17.80;7.50;;;3.10;99.90;;;;;;4171130;28;20377;-67
2022/01/10 05:16:05;;;;;;;12.50;7.50;;;3.10;99.90;;;;;;4177296;28;20053;-67
2022/01/10 05:18:05;;;;;;;15.20;7.80;;;3.10;99.90;;;;;;4178910;28;20931;-68
2022/01/10 05:20:06;;;;;;;14.60;7.90;;;3.10;99.90;;;;;;4177121;28;20048;-67
2022/01/10 05:22:07;;;;;;;17.48;7.70;;;3.10;99.90;;;;;;4174739;28;20040;-67
2022/01/10 05:24:09;;;;;;;17.38;7.72;;;3.10;99.90;;;;;;4174476;28;20095;-67
2022/01/10 05:26:09;;;;;;;16.83;8.37;;;3.10;99.90;;;;;;4170691;28;20099;-67
2022/01/10 05:28:12;;;;;;;14.95;6.82;;;3.10;99.90;;;;;;4177996;28;20033;-67
2022/01/10 05:30:13;;;;;;;15.43;7.68;;;3.00;99.90;;;;;;4169453;28;20086;-67
2022/01/10 05:32:13;;;;;;;17.23;8.13;;;3.00;99.90;;;;;;4177039;28;20128;-67
2022/01/10 05:34:14;;;;;;;17.25;7.43;;;3.00;99.90;;;;;;4177839;28;20039;-67
2022/01/10 05:36:15;;;;;;;12.93;7.28;;;3.00;99.90;;;;;;4176952;28;20409;-67
2022/01/10 05:38:15;;;;;;;14.70;6.97;;;2.90;99.90;;;;;;4171974;28;20459;-67
2022/01/10 05:40:16;;;;;;;17.17;8.07;;;2.90;99.90;;;;;;4171422;28;20103;-67
2022/01/10 05:42:19;;;;;;;16.75;7.75;;;2.90;99.90;;;;;;4172826;28;20048;-67
2022/01/10 05:44:20;;;;;;;15.48;7.60;;;2.90;99.90;;;;;;4171119;28;20060;-67
2022/01/10 05:46:21;;;;;;;18.95;8.38;;;2.80;99.90;;;;;;4173907;28;20040;-67
2022/01/10 05:48:26;;;;;;;14.70;7.78;;;2.80;99.90;;;;;;4183614;28;20048;-67
2022/01/10 05:50:34;;;;;;;16.70;8.00;;;2.90;99.90;;;;;;4187273;28;20053;-67
2022/01/10 05:52:35;;;;;;;15.60;7.82;;;2.90;99.90;;;;;;4178995;28;20128;-68
2022/01/10 05:54:36;;;;;;;16.08;8.23;;;2.80;99.90;;;;;;4183378;28;20396;-67
2022/01/10 05:56:37;;;;;;;16.33;8.27;;;2.90;99.90;;;;;;4179673;28;20597;-67
2022/01/10 05:58:37;;;;;;;15.48;8.07;;;2.90;99.90;;;;;;4180024;28;20045;-67
2022/01/10 06:00:38;;;;;;;20.70;8.63;;;2.90;99.90;;;;;;4184333;28;20417;-67
2022/01/10 06:02:39;;;;;;;15.70;8.63;;;2.90;99.90;;;;;;4179517;28;20032;-67
2022/01/10 06:04:40;;;;;;;21.08;9.27;;;2.90;99.90;;;;;;4182489;28;20111;-67
2022/01/10 06:06:40;;;;;;;16.00;8.60;;;2.90;99.90;;;;;;4186656;28;20035;-67
2022/01/10 06:08:41;;;;;;;18.83;10.18;;;2.90;99.90;;;;;;4179412;28;20041;-67
2022/01/10 06:10:41;;;;;;;20.38;10.40;;;2.90;99.90;;;;;;4182117;28;20037;-67
2022/01/10 06:12:42;;;;;;;18.58;9.65;;;2.90;99.90;;;;;;4185191;28;20045;-67
2022/01/10 06:14:43;;;;;;;19.27;10.60;;;2.90;99.90;;;;;;4183817;28;20063;-67
2022/01/10 06:16:43;;;;;;;18.70;9.32;;;2.90;99.90;;;;;;4186406;28;20037;-67
2022/01/10 06:18:44;;;;;;;23.75;10.23;;;2.90;99.90;;;;;;4179412;28;20484;-67
2022/01/10 06:20:45;;;;;;;18.35;9.77;;;2.90;99.90;;;;;;4183565;28;20041;-67
2022/01/10 06:22:46;;;;;;;17.15;8.90;;;2.90;99.90;;;;;;4179570;28;20041;-67
2022/01/10 06:24:47;;;;;;;18.80;8.98;;;2.90;99.90;;;;;;4179805;28;20068;-67
2022/01/10 06:26:47;;;;;;;14.90;9.00;;;2.90;99.90;;;;;;4180190;28;20033;-67
2022/01/10 06:28:48;;;;;;;18.65;9.05;;;2.90;99.90;;;;;;4180208;28;20048;-67
2022/01/10 06:30:49;;;;;;;17.27;8.88;;;2.90;99.90;;;;;;4182499;28;20039;-67
2022/01/10 06:32:49;;;;;;;17.20;8.77;;;2.80;99.90;;;;;;4180799;28;20504;-67
2022/01/10 06:34:52;;;;;;;16.48;8.80;;;2.80;99.90;;;;;;4184186;28;20041;-67
2022/01/10 06:36:53;;;;;;;15.93;8.57;;;2.80;99.90;;;;;;4182137;28;20082;-67
2022/01/10 06:38:54;;;;;;;16.67;8.50;;;2.80;99.90;;;;;;4183169;28;20119;-67
2022/01/10 06:40:54;;;;;;;18.17;8.52;;;2.80;99.90;;;;;;4178942;28;20407;-67
2022/01/10 06:42:55;;;;;;;15.02;8.20;;;2.80;99.90;;;;;;4182057;28;21592;-67
2022/01/10 06:44:56;;;;;;;14.45;7.63;;;2.80;99.90;;;;;;4185388;28;20526;-67
2022/01/10 06:46:57;;;;;;;15.43;8.13;;;2.80;99.90;;;;;;4180411;28;20570;-67
2022/01/10 06:48:57;;;;;;;12.82;6.93;;;2.80;99.90;;;;;;4181092;28;20041;-67
2022/01/10 06:50:58;;;;;;;12.43;7.72;;;2.80;99.90;;;;;;4177959;28;20072;-67
2022/01/10 06:53:00;;;;;;;15.00;7.32;;;2.80;99.90;;;;;;4186629;28;20055;-67
2022/01/10 06:55:01;;;;;;;18.10;9.07;;;2.80;99.90;;;;;;4181952;28;20056;-67
2022/01/10 06:57:02;;;;;;;15.57;8.50;;;2.80;99.90;;;;;;4184903;28;20044;-67
2022/01/10 06:59:03;;;;;;;15.88;7.78;;;2.80;99.90;;;;;;4183278;28;20071;-67
2022/01/10 07:01:04;;;;;;;17.23;7.80;;;2.80;99.90;;;;;;4181713;28;20037;-67
2022/01/10 07:03:05;;;;;;;17.35;8.80;;;2.80;99.90;;;;;;4184332;28;20413;-67
2022/01/10 07:05:06;;;;;;;16.55;8.13;;;2.80;99.90;;;;;;4186832;28;20044;-69
2022/01/10 07:07:06;;;;;;;15.98;8.48;;;2.80;99.90;;;;;;4182643;28;20048;-69
2022/01/10 07:09:07;;;;;;;20.95;8.95;;;2.80;99.90;;;;;;4184598;28;20044;-68
2022/01/10 07:11:08;;;;;;;14.82;8.45;;;2.80;99.90;;;;;;4188454;28;20040;-68
2022/01/10 07:13:09;;;;;;;16.73;8.82;;;2.80;99.90;;;;;;4180596;28;20151;-68
2022/01/10 07:15:09;;;;;;;19.50;8.93;;;2.80;99.90;;;;;;4176235;28;20053;-68
2022/01/10 07:17:10;;;;;;;15.63;8.15;;;2.80;99.90;;;;;;4183645;28;20040;-68
2022/01/10 07:19:11;;;;;;;16.88;8.48;;;2.80;99.90;;;;;;4187129;28;20037;-68
2022/01/10 07:21:11;;;;;;;17.65;8.77;;;2.80;99.90;;;;;;4185060;28;20056;-68
2022/01/10 07:23:12;;;;;;;16.95;8.63;;;2.80;99.90;;;;;;4184726;28;20035;-67
2022/01/10 07:25:12;;;;;;;18.05;9.25;;;2.80;99.90;;;;;;4168282;28;20045;-67
2022/01/10 07:27:13;;;;;;;15.40;8.40;;;2.80;99.90;;;;;;4182891;28;20480;-68
2022/01/10 07:29:14;;;;;;;19.20;8.55;;;2.80;99.90;;;;;;4189886;28;20561;-67
2022/01/10 07:31:14;;;;;;;12.82;7.55;;;2.80;99.90;;;;;;4182191;28;20059;-67
2022/01/10 07:33:16;;;;;;;17.15;8.95;;;2.80;99.90;;;;;;4184244;28;20043;-67
2022/01/10 07:35:16;;;;;;;18.77;8.50;;;2.80;99.90;;;;;;4180867;28;20052;-67
2022/01/10 07:37:18;;;;;;;16.25;8.40;;;2.90;99.90;;;;;;4181477;28;20029;-68
2022/01/10 07:39:18;;;;;;;13.70;7.93;;;2.90;99.90;;;;;;4181415;28;20033;-67
2022/01/10 07:41:19;;;;;;;14.18;7.53;;;2.90;99.90;;;;;;4183272;28;20024;-67
2022/01/10 07:43:20;;;;;;;16.95;8.63;;;2.90;99.90;;;;;;4182804;28;20052;-68
2022/01/10 07:45:20;;;;;;;15.80;7.55;;;2.90;99.90;;;;;;4180239;28;20041;-68
2022/01/10 07:47:21;;;;;;;15.30;8.57;;;2.90;99.90;;;;;;4182851;28;20037;-68
2022/01/10 07:49:22;;;;;;;17.08;8.63;;;2.90;99.90;;;;;;4182953;28;20033;-67
2022/01/10 07:51:23;;;;;;;13.40;8.05;;;2.90;99.90;;;;;;4180589;28;20052;-67
2022/01/10 07:53:24;;;;;;;16.13;8.07;;;2.90;99.90;;;;;;4183600;28;20040;-68
2022/01/10 07:55:25;;;;;;;15.93;8.00;;;2.90;99.90;;;;;;4182580;28;20384;-68
2022/01/10 07:57:25;;;;;;;13.23;7.55;;;2.80;99.90;;;;;;4185257;28;20093;-68
2022/01/10 07:59:26;;;;;;;13.32;6.93;;;2.80;99.90;;;;;;4185750;28;20047;-68
2022/01/10 08:01:27;;;;;;;15.45;8.02;;;2.80;99.90;;;;;;4186052;28;20100;-68
2022/01/10 08:03:27;;;;;;;13.95;7.80;;;2.90;99.90;;;;;;4181196;28;20077;-68
2022/01/10 08:05:28;;;;;;;15.13;8.02;;;2.90;99.90;;;;;;4182510;28;21843;-68
2022/01/10 08:07:29;;;;;;;15.40;7.50;;;2.90;99.90;;;;;;4184532;28;20029;-67
2022/01/10 08:09:30;;;;;;;14.85;8.02;;;3.00;99.90;;;;;;4186667;28;20081;-67
2022/01/10 08:11:30;;;;;;;21.00;8.65;;;3.00;99.90;;;;;;4184302;28;20052;-68
2022/01/10 08:13:31;;;;;;;17.38;8.60;;;3.00;99.90;;;;;;4185422;28;20041;-68
2022/01/10 08:15:31;;;;;;;22.15;8.77;;;3.00;99.90;;;;;;4188138;28;20136;-68
2022/01/10 08:17:32;;;;;;;17.15;8.65;;;3.10;99.90;;;;;;4183259;28;20093;-68
2022/01/10 08:19:34;;;;;;;18.88;8.82;;;3.10;99.90;;;;;;4181728;28;20368;-68
2022/01/10 08:21:34;;;;;;;19.40;9.55;;;3.20;99.90;;;;;;4183233;28;20048;-67
2022/01/10 08:23:35;;;;;;;17.60;9.20;;;3.20;99.90;;;;;;4184024;28;20037;-67
2022/01/10 08:25:36;;;;;;;18.55;9.30;;;3.30;99.90;;;;;;4180913;28;20033;-68
2022/01/10 08:27:36;;;;;;;21.63;9.07;;;3.40;99.90;;;;;;4181643;28;20068;-69
2022/01/10 08:29:37;;;;;;;25.75;10.50;;;3.50;99.90;;;;;;4182841;28;20045;-68
2022/01/10 08:31:38;;;;;;;20.58;10.63;;;3.70;99.90;;;;;;4184343;28;20040;-68
2022/01/10 08:33:38;;;;;;;20.27;9.80;;;3.80;99.90;;;;;;4182730;28;20056;-68
2022/01/10 08:35:39;;;;;;;21.42;9.63;;;3.90;99.90;;;;;;4180764;28;20510;-68
2022/01/10 08:37:40;;;;;;;18.67;9.07;;;4.00;99.90;;;;;;4182637;28;20099;-68
2022/01/10 08:39:40;;;;;;;19.88;10.10;;;4.10;99.90;;;;;;4183619;28;20029;-68
2022/01/10 08:41:41;;;;;;;21.20;10.45;;;4.20;99.90;;;;;;4179542;28;20054;-68
2022/01/10 08:43:42;;;;;;;21.27;9.90;;;4.30;99.90;;;;;;4181542;28;20075;-68
2022/01/10 08:45:43;;;;;;;22.77;9.88;;;4.40;99.90;;;;;;4180990;28;20396;-68
2022/01/10 08:47:45;;;;;;;22.60;10.55;;;4.30;99.90;;;;;;4181643;28;20057;-68
2022/01/10 08:49:46;;;;;;;;;;;4.30;99.90;;;;;;4182084;28;20044;-68
2022/01/10 08:51:50;;;;;;;20.35;9.93;;;4.30;99.90;;;;;;4180974;28;19921;-68
2022/01/10 08:53:51;;;;;;;21.90;11.40;;;4.30;99.90;;;;;;4182829;28;20041;-68
2022/01/10 08:55:52;;;;;;;22.13;10.93;;;4.30;99.90;;;;;;4181512;28;20041;-68
2022/01/10 08:57:52;;;;;;;26.20;11.27;;;4.20;99.90;;;;;;4186732;28;20032;-68
2022/01/10 08:59:53;;;;;;;21.55;11.30;;;4.20;99.90;;;;;;4181856;28;20388;-67
2022/01/10 09:01:55;;;;;;;21.55;10.90;;;4.20;99.90;;;;;;4184587;28;20116;-67
2022/01/10 09:03:56;;;;;;;19.45;10.25;;;4.10;99.90;;;;;;4182484;28;20641;-67
2022/01/10 09:05:57;;;;;;;23.05;10.73;;;4.10;99.90;;;;;;4188223;28;20048;-67
2022/01/10 09:07:58;;;;;;;23.15;10.48;;;4.10;99.90;;;;;;4187242;28;20107;-67
2022/01/10 09:09:59;;;;;;;19.73;9.75;;;4.00;99.90;;;;;;4187221;28;20112;-67
2022/01/10 09:12:00;;;;;;;21.73;10.20;;;4.00;99.90;;;;;;4160667;28;20420;-67
2022/01/10 09:14:00;;;;;;;21.63;10.52;;;4.00;99.90;;;;;;4182362;28;20048;-67
2022/01/10 09:16:02;;;;;;;17.95;9.70;;;4.00;99.90;;;;;;4184493;28;20052;-67
2022/01/10 09:18:02;;;;;;;17.38;9.57;;;4.00;99.90;;;;;;4183546;28;20037;-67
2022/01/10 09:20:04;;;;;;;20.95;10.15;;;4.00;99.90;;;;;;4185202;28;20048;-67
2022/01/10 09:22:04;;;;;;;24.10;10.85;;;4.00;99.90;;;;;;4187683;28;20036;-67
2022/01/10 09:24:05;;;;;;;23.02;11.15;;;4.00;99.90;;;;;;4188916;28;20048;-67
2022/01/10 09:26:06;;;;;;;20.75;9.60;;;4.00;99.90;;;;;;4181199;28;20068;-64
2022/01/10 09:28:06;;;;;;;21.42;9.70;;;4.00;99.90;;;;;;4185608;28;20087;-66
2022/01/10 09:30:08;;;;;;;21.38;9.90;;;4.00;99.90;;;;;;4177815;28;20476;-68
2022/01/10 09:32:09;;;;;;;22.17;10.70;;;4.20;99.90;;;;;;4179590;28;20037;-66
2022/01/10 09:34:10;;;;;;;21.33;10.90;;;4.30;99.90;;;;;;4181063;28;20047;-66
2022/01/10 09:36:10;;;;;;;20.35;9.50;;;4.50;99.90;;;;;;4180969;28;20051;-66
2022/01/10 09:38:11;;;;;;;20.50;9.68;;;4.80;99.90;;;;;;4182764;28;20052;-66
2022/01/10 09:40:12;;;;;;;18.50;9.82;;;5.00;99.90;;;;;;4179699;28;20082;-67
2022/01/10 09:42:13;;;;;;;15.57;8.63;;;5.30;99.90;;;;;;4184870;28;20033;-66
2022/01/10 09:44:16;;;;;;;18.10;9.05;;;5.60;99.90;;;;;;4179349;28;20479;-66
2022/01/10 09:46:17;;;;;;;23.80;10.10;;;5.80;99.90;;;;;;4183284;28;20045;-66
2022/01/10 09:48:17;;;;;;;18.30;9.95;;;6.00;99.90;;;;;;4180682;28;20026;-66
2022/01/10 09:50:18;;;;;;;18.55;8.73;;;6.10;99.90;;;;;;4186262;28;20053;-67
2022/01/10 09:52:19;;;;;;;17.75;8.70;;;6.20;99.90;;;;;;4185007;28;20041;-67
2022/01/10 09:54:19;;;;;;;14.82;8.38;;;6.20;99.90;;;;;;4182438;28;20043;-67
2022/01/10 09:56:21;;;;;;;16.05;8.25;;;6.30;99.90;;;;;;4185496;28;20093;-67
2022/01/10 09:58:22;;;;;;;19.65;8.77;;;6.30;99.90;;;;;;4183412;28;20056;-67
2022/01/10 10:00:23;;;;;;;18.02;9.75;;;6.30;99.90;;;;;;4181413;28;20041;-66
2022/01/10 10:02:30;;;;;;;18.20;8.77;;;6.40;99.90;;;;;;4180575;28;20045;-67
2022/01/10 10:04:38;;;;;;;24.48;10.63;;;6.40;99.90;;;;;;4185948;28;20036;-67
2022/01/10 10:06:38;;;;;;;26.02;11.50;;;6.30;99.90;;;;;;4182208;28;20087;-67
2022/01/10 10:08:39;;;;;;;17.80;9.52;;;6.20;99.90;;;;;;4184058;28;20049;-67
2022/01/10 10:10:41;;;;;;;19.02;10.18;;;6.20;99.90;;;;;;4182717;28;20041;-67
2022/01/10 10:12:44;;;;;;;20.00;9.63;;;6.20;99.90;;;;;;4184217;28;20036;-66
2022/01/10 10:14:45;;;;;;;18.77;10.25;;;6.20;99.90;;;;;;4184811;28;20043;-66
2022/01/10 10:16:50;;;;;;;18.83;9.07;;;6.20;99.90;;;;;;4178614;28;20491;-66
2022/01/10 10:18:52;;;;;;;15.05;8.88;;;6.20;99.90;;;;;;4183330;28;20041;-66
2022/01/10 10:20:53;;;;;;;22.23;9.65;;;6.20;99.90;;;;;;4182689;28;20079;-66
2022/01/10 10:22:54;;;;;;;19.35;10.15;;;6.20;99.90;;;;;;4189475;28;20036;-66
2022/01/10 10:24:55;;;;;;;19.27;10.10;;;6.20;99.90;;;;;;4183637;28;20029;-66
2022/01/10 10:26:57;;;;;;;15.00;9.02;;;6.10;99.90;;;;;;4181175;28;20400;-66
2022/01/10 10:28:57;;;;;;;20.98;9.88;;;6.20;99.90;;;;;;4183007;28;20079;-66
2022/01/10 10:30:58;;;;;;;19.20;9.48;;;6.20;99.90;;;;;;4187297;28;20045;-66
2022/01/10 10:33:23;;;;;;;20.17;10.07;;;6.10;99.90;;;;;;4181543;28;20045;-66
2022/01/10 10:35:23;;;;;;;16.17;9.13;;;6.10;99.90;;;;;;4176341;28;20045;-66
2022/01/10 10:37:27;;;;;;;16.58;8.75;;;6.10;99.90;;;;;;4182739;28;20041;-66
2022/01/10 10:39:29;;;;;;;17.30;8.73;;;6.10;99.90;;;;;;4184194;28;20360;-66
2022/01/10 10:41:29;;;;;;;18.63;9.65;;;6.10;99.90;;;;;;4177938;28;20041;-66
2022/01/10 10:43:35;;;;;;;15.13;8.57;;;6.10;99.90;;;;;;4181611;28;20447;-66